»·PEaware :: N32314 KSBA-KSNA

N32314 :: KSBA-KSNA

FLIGHT INFORMATION

Flight Status: Arrived
Operator: Privately registered:
United States
More flights under this callsign
Pilot: John O. (31453)
Aircraft: CESSNA 172 SKYHAWK
(C172)
More flights by this aircraft type
Origin: KSBA Santa Barbara Mun
United States
Destination: KSNA John Wayne-Orange Co
United States
More flights between these airports :: More routes between these airports
Route: +
File this flight plan on PilotEdge
Remarks:
Altitude:
(Current/Filed)
5,500ft
Speed:
(Current/Filed)
0kts
Departed: 11-Nov-20 12:13 PM
Arrived: 11-Nov-20 01:36 PM
Distance/Time
Traveled:
108nm/1:23
Distance/Time
To Go:
Arrived

Flight Plot

Page will automatically refresh every two minutes.


Map Options




Map Legend


Flown Route
Filed Route
Departure Airport
Arrival Airport
Navaid (VOR, NDB)
Fix

Horizontal Profiles

Position Reports

Time Latitude Longitude Heading Altitude Ground
Speed
11-Nov-20 12:03 34.421896 -119.836181 260 17ft 0kts
11-Nov-20 12:04 34.421896 -119.836181 260 17ft 0kts
11-Nov-20 12:05 34.421895 -119.836184 259 17ft 1kts
11-Nov-20 12:06 34.425205 -119.837888 345 18ft 11kts
11-Nov-20 12:07 34.428586 -119.838920 344 15ft 18kts
11-Nov-20 12:08 34.430440 -119.838879 311 11ft 0kts
11-Nov-20 12:09 34.430440 -119.838879 311 11ft 0kts
11-Nov-20 12:10 34.430440 -119.838879 311 11ft 0kts
11-Nov-20 12:11 34.430621 -119.839535 288 11ft 12kts
11-Nov-20 12:12 34.427996 -119.839527 164 17ft 58kts
11-Nov-20 12:13 34.403635 -119.830422 162 522ft 102kts
11-Nov-20 12:14 34.376310 -119.819281 162 1218ft 103kts
11-Nov-20 12:15 34.361710 -119.792250 99 1890ft 104kts
11-Nov-20 12:16 34.356521 -119.758225 101 2589ft 101kts
11-Nov-20 12:17 34.351224 -119.725164 101 3291ft 98kts
11-Nov-20 12:18 34.345802 -119.693244 101 3991ft 95kts
11-Nov-20 12:19 34.340236 -119.662900 101 4686ft 90kts
11-Nov-20 12:20 34.334769 -119.632149 99 5301ft 96kts
11-Nov-20 12:21 34.328792 -119.595425 99 5459ft 123kts
11-Nov-20 12:22 34.322184 -119.553919 99 5457ft 121kts
11-Nov-20 12:23 34.316089 -119.515316 99 5471ft 114kts
11-Nov-20 12:24 34.310167 -119.477407 99 5481ft 115kts
11-Nov-20 12:25 34.304285 -119.439383 99 5480ft 115kts
11-Nov-20 12:26 34.298492 -119.401404 99 5479ft 115kts
11-Nov-20 12:27 34.292708 -119.363180 99 5479ft 115kts
11-Nov-20 12:28 34.287014 -119.324987 99 5476ft 115kts
11-Nov-20 12:29 34.281483 -119.286996 99 5476ft 114kts
11-Nov-20 12:30 34.276085 -119.249050 99 5476ft 115kts
11-Nov-20 12:31 34.270758 -119.210764 99 5476ft 115kts
11-Nov-20 12:32 34.265632 -119.172565 99 5476ft 114kts
11-Nov-20 12:33 34.260667 -119.134528 99 5476ft 114kts
11-Nov-20 12:34 34.255837 -119.096492 99 5477ft 114kts
11-Nov-20 12:35 34.251122 -119.058213 99 5476ft 115kts
11-Nov-20 12:36 34.246419 -119.019942 99 5476ft 115kts
11-Nov-20 12:37 34.241697 -118.981611 99 5477ft 115kts
11-Nov-20 12:38 34.236535 -118.943522 100 5479ft 115kts
11-Nov-20 12:39 34.230936 -118.905516 101 5480ft 114kts
11-Nov-20 12:41 34.225055 -118.867343 100 5480ft 115kts
11-Nov-20 12:42 34.219143 -118.829185 100 5482ft 115kts
11-Nov-20 12:43 34.213199 -118.790994 101 5501ft 115kts
11-Nov-20 12:44 34.207245 -118.752760 101 5498ft 115kts
11-Nov-20 12:45 34.201360 -118.714697 100 5497ft 114kts
11-Nov-20 12:46 34.195466 -118.676652 101 5499ft 115kts
11-Nov-20 12:47 34.189492 -118.638559 100 5502ft 115kts
11-Nov-20 12:48 34.183531 -118.600549 100 5502ft 115kts
11-Nov-20 12:49 34.177428 -118.562619 109 5502ft 115kts
11-Nov-20 12:50 34.154809 -118.539962 158 5505ft 113kts
11-Nov-20 12:51 34.125478 -118.525700 159 5502ft 113kts
11-Nov-20 12:52 34.095815 -118.511237 159 5499ft 115kts
11-Nov-20 12:53 34.066293 -118.496838 159 5493ft 114kts
11-Nov-20 12:53 34.041656 -118.484828 159 5494ft 114kts
11-Nov-20 12:55 34.007404 -118.468141 159 5494ft 114kts
11-Nov-20 12:56 33.978021 -118.453840 159 5496ft 114kts
11-Nov-20 12:57 33.948401 -118.439429 159 5495ft 114kts
11-Nov-20 12:57 33.923915 -118.430090 121 5492ft 117kts
11-Nov-20 12:59 33.901082 -118.397152 140 5499ft 117kts
11-Nov-20 12:59 33.880782 -118.375267 140 5494ft 117kts
11-Nov-20 13:01 33.852472 -118.344680 140 5495ft 117kts
11-Nov-20 13:01 33.832392 -118.322979 140 5500ft 117kts
11-Nov-20 13:02 33.808168 -118.296806 140 5497ft 117kts
11-Nov-20 13:03 33.783997 -118.270704 140 5523ft 116kts
11-Nov-20 13:04 33.759719 -118.244500 140 5532ft 117kts
11-Nov-20 13:05 33.735233 -118.218082 140 5533ft 118kts
11-Nov-20 13:06 33.710703 -118.191641 140 5532ft 118kts
11-Nov-20 13:07 33.715499 -118.167356 29 5531ft 116kts
11-Nov-20 13:08 33.733934 -118.134339 56 5531ft 119kts
11-Nov-20 13:09 33.749888 -118.099380 59 5533ft 119kts
11-Nov-20 13:10 33.765618 -118.064620 59 5532ft 119kts
11-Nov-20 13:11 33.781488 -118.029820 59 5534ft 118kts
11-Nov-20 13:12 33.803988 -118.005030 70 5535ft 117kts
11-Nov-20 13:13 33.817905 -117.969595 63 5535ft 117kts
11-Nov-20 13:14 33.832204 -117.934277 63 5535ft 117kts
11-Nov-20 13:15 33.846475 -117.899074 63 5500ft 119kts
11-Nov-20 13:16 33.861459 -117.862103 63 5000ft 120kts
11-Nov-20 13:17 33.876123 -117.825920 63 4423ft 120kts
11-Nov-20 13:18 33.890877 -117.789507 63 3820ft 120kts
11-Nov-20 13:19 33.904876 -117.754929 63 3552ft 108kts
11-Nov-20 13:20 33.917596 -117.723504 63 3542ft 101kts
11-Nov-20 13:21 33.936738 -117.701286 28 3542ft 98kts
11-Nov-20 13:22 33.960039 -117.695972 280 3537ft 100kts
11-Nov-20 13:23 33.938646 -117.701774 218 3542ft 100kts
11-Nov-20 13:24 33.913912 -117.717716 207 3539ft 101kts
11-Nov-20 13:25 33.888237 -117.734041 207 3441ft 103kts
11-Nov-20 13:26 33.863248 -117.749923 207 3440ft 101kts
11-Nov-20 13:27 33.838196 -117.765837 207 3369ft 107kts
11-Nov-20 13:28 33.809957 -117.783763 207 2866ft 117kts
11-Nov-20 13:29 33.782769 -117.801013 207 2259ft 101kts
11-Nov-20 13:30 33.759283 -117.815906 206 1759ft 87kts
11-Nov-20 13:31 33.737855 -117.829486 206 1309ft 87kts
11-Nov-20 13:32 33.717030 -117.842678 206 860ft 82kts
11-Nov-20 13:33 33.696921 -117.855410 206 421ft 81kts
11-Nov-20 13:34 33.679073 -117.866787 204 60ft 53kts
11-Nov-20 13:35 33.676004 -117.869853 299 58ft 0kts
11-Nov-20 13:36 33.676203 -117.870963 235 55ft 0kts
11-Nov-20 13:37 33.676203 -117.870963 235 55ft 0kts
11-Nov-20 13:38 33.676203 -117.870963 235 55ft 0kts
11-Nov-20 13:39 33.676203 -117.870963 235 55ft 0kts
11-Nov-20 13:40 33.676203 -117.870963 235 55ft 0kts
11-Nov-20 13:41 33.676203 -117.870963 235 55ft 0kts
11-Nov-20 13:42 33.676203 -117.870963 235 55ft 0kts
11-Nov-20 13:43 33.676203 -117.870963 235 55ft 0kts
11-Nov-20 13:44 33.676203 -117.870963 235 55ft 0kts
11-Nov-20 13:45 33.676203 -117.870963 235 55ft 0kts
11-Nov-20 13:46 33.676203 -117.870963 235 55ft 0kts
11-Nov-20 13:47 33.676203 -117.870963 235 55ft 0kts
11-Nov-20 13:48 33.676203 -117.870963 235 55ft 0kts
11-Nov-20 13:49 33.676203 -117.870963 235 55ft 0kts

Navigation Log

Ident Type
Flight plan parsing failed, navigation log unavailable